Time;durP1;ratioP1;P1;durP2;ratioP2;P2;SDS_P1;SDS_P2;PMS_P1;PMS_P2;Temp;Humidity;BMP_temperature;BMP_pressure;BME280_temperature;BME280_humidity;BME280_pressure;Samples;Min_cycle;Max_cycle;Signal;HPM_P1;HPM_P2
2023/06/06 00:02:32;;;;;;;7.43;5.43;;;;;16.80;96823.00;;;;4908161;29;20229;-74
2023/06/06 00:05:25;;;;;;;6.50;5.47;;;;;16.80;96822.00;;;;4912284;29;20205;-74
2023/06/06 00:08:15;;;;;;;7.10;4.87;;;;;17.00;96822.00;;;;4909281;29;20243;-74
2023/06/06 00:11:05;;;;;;;6.03;5.43;;;;;17.00;96820.00;;;;4914293;29;20679;-74
2023/06/06 00:13:54;;;;;;;7.40;5.30;;;;;16.90;96817.00;;;;4914276;29;20214;-74
2023/06/06 00:16:44;;;;;;;5.80;4.40;;;;;16.70;96815.00;;;;4908396;29;20206;-74
2023/06/06 00:19:35;;;;;;;6.57;5.23;;;;;16.50;96816.00;;;;4913743;29;20202;-74
2023/06/06 00:22:24;;;;;;;6.80;5.03;;;;;16.30;96816.00;;;;4911748;29;20629;-74
2023/06/06 00:25:15;;;;;;;6.40;5.00;;;;;16.20;96816.00;;;;4911061;29;20247;-74
2023/06/06 00:28:04;;;;;;;7.53;5.80;;;;;16.10;96812.00;;;;4905132;29;20229;-74
2023/06/06 00:30:53;;;;;;;7.27;6.10;;;;;16.30;96811.00;;;;4907280;29;20202;-74
2023/06/06 00:33:42;;;;;;;10.30;6.30;;;;;16.40;96815.00;;;;4913272;29;20588;-74
2023/06/06 00:36:31;;;;;;;9.80;6.27;;;;;16.30;96817.00;;;;4911422;29;20589;-74
2023/06/06 00:39:20;;;;;;;7.93;6.27;;;;;16.70;96811.00;;;;4910578;29;20234;-74
2023/06/06 00:42:11;;;;;;;9.90;5.83;;;;;16.80;96814.00;;;;4904569;29;20766;-74
2023/06/06 00:45:00;;;;;;;7.63;5.43;;;;;16.70;96805.00;;;;4900265;29;20581;-74
2023/06/06 00:47:49;;;;;;;9.00;6.27;;;;;16.60;96804.00;;;;4910862;29;20260;-74
2023/06/06 00:50:40;;;;;;;6.97;5.43;;;;;16.40;96793.00;;;;4909954;29;20612;-74
2023/06/06 00:53:29;;;;;;;7.10;5.97;;;;;16.40;96791.00;;;;4912652;29;20239;-74
2023/06/06 00:56:19;;;;;;;9.03;5.30;;;;;16.60;96794.00;;;;4911789;29;20206;-74
2023/06/06 00:59:10;;;;;;;7.40;6.40;;;;;16.60;96791.00;;;;4908761;29;20221;-74
2023/06/06 01:02:03;;;;;;;7.03;5.60;;;;;16.70;96795.00;;;;4909211;29;20233;-74
2023/06/06 01:04:53;;;;;;;5.17;4.63;;;;;16.60;96801.00;;;;4908946;29;20288;-74
2023/06/06 01:07:42;;;;;;;6.90;5.13;;;;;16.50;96792.00;;;;4909849;29;20328;-74
2023/06/06 01:10:34;;;;;;;5.27;4.50;;;;;16.70;96795.00;;;;4908931;29;21525;-74
2023/06/06 01:13:33;;;;;;;5.00;4.50;;;;;16.80;96793.00;;;;4910702;29;20253;-74
2023/06/06 01:16:24;;;;;;;7.47;4.73;;;;;16.80;96796.00;;;;4909986;29;20807;-74
2023/06/06 01:19:20;;;;;;;4.80;4.27;;;;;16.80;96791.00;;;;4909350;29;20217;-74
2023/06/06 01:22:13;;;;;;;8.07;5.10;;;;;16.70;96797.00;;;;4910024;29;20241;-74
2023/06/06 01:25:04;;;;;;;5.60;4.90;;;;;16.50;96791.00;;;;4909821;29;20260;-74
2023/06/06 01:27:55;;;;;;;5.03;4.23;;;;;16.60;96794.00;;;;4909614;29;20587;-74
2023/06/06 01:30:45;;;;;;;7.23;5.53;;;;;16.40;96798.00;;;;4913931;29;20208;-74
2023/06/06 01:33:43;;;;;;;4.63;4.23;;;;;16.40;96793.00;;;;4908201;29;20616;-74
2023/06/06 01:36:38;;;;;;;5.40;4.67;;;;;16.50;96787.00;;;;4912039;29;20209;-74
2023/06/06 01:39:28;;;;;;;7.67;4.53;;;;;16.40;96792.00;;;;4911654;29;20597;-74
2023/06/06 01:42:18;;;;;;;5.73;4.80;;;;;16.20;96793.00;;;;4907534;29;20297;-74
2023/06/06 01:45:09;;;;;;;5.53;5.00;;;;;16.20;96789.00;;;;4911324;29;20212;-74
2023/06/06 01:47:59;;;;;;;5.90;5.23;;;;;16.00;96790.00;;;;4911287;29;20213;-74
2023/06/06 01:50:48;;;;;;;5.27;4.53;;;;;16.10;96791.00;;;;4909328;29;20264;-74
2023/06/06 01:53:38;;;;;;;5.37;4.87;;;;;16.50;96794.00;;;;4912518;29;20229;-74
2023/06/06 01:56:33;;;;;;;4.70;4.30;;;;;16.50;96787.00;;;;4911355;29;20586;-74
2023/06/06 01:59:22;;;;;;;6.20;5.07;;;;;16.60;96797.00;;;;4907593;29;20204;-74
2023/06/06 02:02:11;;;;;;;5.90;4.13;;;;;16.60;96795.00;;;;4908008;29;20812;-74
2023/06/06 02:05:00;;;;;;;5.13;4.17;;;;;16.60;96801.00;;;;4910762;29;20208;-74
2023/06/06 02:07:51;;;;;;;5.40;4.90;;;;;16.40;96789.00;;;;4908888;29;20217;-74
2023/06/06 02:10:41;;;;;;;5.10;4.50;;;;;16.40;96796.00;;;;4912837;29;20232;-74
2023/06/06 02:13:33;;;;;;;6.43;4.83;;;;;16.30;96798.00;;;;4909262;29;20225;-74
2023/06/06 02:16:23;;;;;;;5.53;5.03;;;;;16.40;96792.00;;;;4909338;29;20209;-74
2023/06/06 02:19:13;;;;;;;5.93;4.93;;;;;16.50;96801.00;;;;4905202;29;20209;-74
2023/06/06 02:22:02;;;;;;;5.20;4.70;;;;;16.50;96806.00;;;;4911247;29;20236;-74
2023/06/06 02:24:53;;;;;;;5.10;4.27;;;;;16.50;96801.00;;;;4909420;29;20217;-74
2023/06/06 02:27:48;;;;;;;5.43;4.23;;;;;16.60;96798.00;;;;4911723;29;20201;-74
2023/06/06 02:30:38;;;;;;;6.83;5.53;;;;;16.70;96798.00;;;;4905506;29;20696;-74
2023/06/06 02:33:28;;;;;;;4.83;4.33;;;;;16.70;96806.00;;;;4912096;29;20603;-73
2023/06/06 02:36:18;;;;;;;4.70;4.20;;;;;16.50;96795.00;;;;4913350;29;20223;-74
2023/06/06 02:39:07;;;;;;;5.47;4.97;;;;;16.30;96818.00;;;;4906656;29;20636;-74
2023/06/06 02:41:56;;;;;;;4.80;4.33;;;;;16.10;96812.00;;;;4909978;29;20241;-74
2023/06/06 02:44:45;;;;;;;4.80;4.40;;;;;16.40;96807.00;;;;4915182;29;20205;-74
2023/06/06 02:47:36;;;;;;;4.70;4.23;;;;;16.40;96813.00;;;;4919075;29;20207;-74
2023/06/06 02:50:28;;;;;;;5.13;4.30;;;;;16.70;96813.00;;;;4913635;29;20257;-74
2023/06/06 02:53:17;;;;;;;4.87;4.07;;;;;16.80;96808.00;;;;4916729;29;20233;-74
2023/06/06 02:56:06;;;;;;;5.27;4.70;;;;;16.60;96814.00;;;;4913462;29;20232;-74
2023/06/06 02:58:55;;;;;;;5.27;4.50;;;;;16.40;96819.00;;;;4912725;29;20703;-74
2023/06/06 03:01:48;;;;;;;4.87;3.93;;;;;16.30;96821.00;;;;4914854;29;20244;-74
2023/06/06 03:04:40;;;;;;;5.00;4.50;;;;;16.50;96809.00;;;;4914815;29;20233;-74
2023/06/06 03:07:29;;;;;;;4.93;4.43;;;;;16.60;96815.00;;;;4911700;29;20208;-74
2023/06/06 03:10:18;;;;;;;5.10;4.67;;;;;16.70;96816.00;;;;4913060;29;20240;-74
2023/06/06 03:13:07;;;;;;;4.73;4.33;;;;;16.80;96810.00;;;;4913790;29;20701;-73
2023/06/06 03:15:56;;;;;;;4.53;4.13;;;;;16.80;96810.00;;;;4914798;29;20701;-73
2023/06/06 03:18:46;;;;;;;4.13;3.83;;;;;16.60;96810.00;;;;4911807;29;20742;-73
2023/06/06 03:21:38;;;;;;;4.57;4.17;;;;;16.40;96813.00;;;;4912852;29;20301;-73
2023/06/06 03:24:28;;;;;;;4.73;4.33;;;;;16.30;96807.00;;;;4915168;29;20353;-73
2023/06/06 03:27:17;;;;;;;4.97;4.10;;;;;16.50;96808.00;;;;4909222;29;20205;-74
2023/06/06 03:30:08;;;;;;;3.80;3.40;;;;;16.60;96809.00;;;;4910968;29;20719;-73
2023/06/06 03:33:00;;;;;;;4.90;4.40;;;;;16.60;96811.00;;;;4907416;29;20255;-73
2023/06/06 03:35:50;;;;;;;4.57;4.07;;;;;16.80;96810.00;;;;4911595;29;20277;-73
2023/06/06 03:38:40;;;;;;;5.27;4.13;;;;;16.80;96819.00;;;;4913520;29;20236;-73
2023/06/06 03:41:30;;;;;;;8.53;4.53;;;;;16.80;96814.00;;;;4907568;29;20582;-73
2023/06/06 03:44:19;;;;;;;5.40;4.90;;;;;16.60;96807.00;;;;4912975;29;20211;-73
2023/06/06 03:47:09;;;;;;;4.87;4.20;;;;;16.50;96806.00;;;;4912625;29;20205;-73
2023/06/06 03:49:58;;;;;;;8.37;4.27;;;;;16.50;96810.00;;;;4909092;29;20244;-73
2023/06/06 03:52:47;;;;;;;5.10;4.33;;;;;16.50;96812.00;;;;4910375;29;20229;-73
2023/06/06 03:55:38;;;;;;;5.37;4.80;;;;;16.40;96818.00;;;;4912301;29;20791;-72
2023/06/06 03:58:27;;;;;;;3.97;3.57;;;;;16.50;96806.00;;;;4912683;29;20742;-72
2023/06/06 04:01:16;;;;;;;4.37;3.97;;;;;16.50;96807.00;;;;4907000;29;20205;-73
2023/06/06 04:04:06;;;;;;;5.27;4.77;;;;;16.70;96801.00;;;;4911185;29;20615;-73
2023/06/06 04:06:55;;;;;;;4.70;4.27;;;;;16.70;96812.00;;;;4912937;29;20705;-73
2023/06/06 04:09:44;;;;;;;4.97;3.50;;;;;16.70;96808.00;;;;4909879;29;20232;-73
2023/06/06 04:12:35;;;;;;;4.60;4.03;;;;;16.90;96811.00;;;;4911630;29;20229;-73
2023/06/06 04:15:24;;;;;;;4.43;4.03;;;;;16.90;96810.00;;;;4911632;29;20730;-74
2023/06/06 04:18:13;;;;;;;5.70;4.40;;;;;17.00;96812.00;;;;4911962;29;20213;-74
2023/06/06 04:21:02;;;;;;;4.60;4.20;;;;;17.20;96811.00;;;;4912773;29;20201;-73
2023/06/06 04:23:53;;;;;;;7.00;5.23;;;;;17.20;96813.00;;;;4910812;29;20220;-73
2023/06/06 04:26:42;;;;;;;4.80;4.37;;;;;17.10;96813.00;;;;4911352;29;20213;-73
2023/06/06 04:29:33;;;;;;;6.27;4.13;;;;;17.00;96811.00;;;;4911983;29;20587;-74
2023/06/06 04:32:23;;;;;;;4.73;4.27;;;;;17.00;96808.00;;;;4913516;29;20225;-73
2023/06/06 04:35:12;;;;;;;4.70;4.30;;;;;17.20;96814.00;;;;4913082;29;20217;-73
2023/06/06 04:38:01;;;;;;;5.90;3.53;;;;;17.30;96808.00;;;;4911871;29;20717;-73
2023/06/06 04:40:53;;;;;;;4.10;3.80;;;;;17.50;96805.00;;;;4909698;29;20208;-73
2023/06/06 04:43:52;;;;;;;4.77;4.23;;;;;17.40;96803.00;;;;4914118;29;20311;-73
2023/06/06 04:46:43;;;;;;;7.37;4.33;;;;;17.40;96800.00;;;;4912948;29;20296;-73
2023/06/06 04:49:35;;;;;;;4.30;3.90;;;;;17.40;96803.00;;;;4910483;29;20239;-73
2023/06/06 04:52:25;;;;;;;5.40;4.50;;;;;17.50;96808.00;;;;4917260;29;20257;-73
2023/06/06 04:55:15;;;;;;;6.40;4.07;;;;;17.40;96803.00;;;;4909751;29;20224;-73
2023/06/06 04:58:04;;;;;;;5.83;4.83;;;;;17.40;96799.00;;;;4911683;29;20218;-73
2023/06/06 05:00:53;;;;;;;5.23;4.73;;;;;17.50;96808.00;;;;4909342;29;20247;-72
2023/06/06 05:03:44;;;;;;;5.30;4.80;;;;;17.60;96812.00;;;;4912671;29;20206;-73
2023/06/06 05:06:33;;;;;;;4.67;4.27;;;;;17.50;96804.00;;;;4910702;29;20294;-73
2023/06/06 05:09:23;;;;;;;4.30;3.90;;;;;17.60;96810.00;;;;4911274;29;20213;-72
2023/06/06 05:12:12;;;;;;;4.53;4.10;;;;;17.50;96804.00;;;;4911199;29;20233;-73
2023/06/06 05:15:01;;;;;;;4.23;3.83;;;;;17.70;96808.00;;;;4914014;29;20231;-73
2023/06/06 05:17:56;;;;;;;4.43;3.50;;;;;17.80;96805.00;;;;4914570;29;20220;-72
2023/06/06 05:20:47;;;;;;;4.50;3.93;;;;;18.00;96804.00;;;;4908981;29;20737;-72
2023/06/06 05:23:36;;;;;;;4.40;4.00;;;;;17.90;96798.00;;;;4917492;29;20228;-72
2023/06/06 05:26:25;;;;;;;4.77;4.37;;;;;17.90;96800.00;;;;4921027;29;20217;-72
2023/06/06 05:29:15;;;;;;;5.90;3.97;;;;;17.80;96802.00;;;;4917860;29;20216;-72
2023/06/06 05:32:04;;;;;;;5.27;4.67;;;;;17.80;96804.00;;;;4918669;29;20743;-73
2023/06/06 05:34:53;;;;;;;5.07;4.57;;;;;18.00;96805.00;;;;4912934;29;20593;-73
2023/06/06 05:37:44;;;;;;;4.73;4.33;;;;;18.00;96807.00;;;;4922805;28;20215;-73
2023/06/06 05:40:33;;;;;;;4.73;4.33;;;;;18.30;96807.00;;;;4924396;29;20205;-72
2023/06/06 05:43:22;;;;;;;5.40;4.90;;;;;18.30;96803.00;;;;4925410;29;20713;-72
2023/06/06 05:46:11;;;;;;;4.83;4.33;;;;;17.90;96801.00;;;;4910475;29;20213;-72
2023/06/06 05:49:00;;;;;;;4.53;4.13;;;;;18.30;96807.00;;;;4920027;29;20205;-72
2023/06/06 05:51:49;;;;;;;3.87;3.53;;;;;18.40;96812.00;;;;4912332;29;20225;-72
2023/06/06 05:54:40;;;;;;;4.93;4.50;;;;;18.50;96805.00;;;;4912172;29;20633;-73
2023/06/06 05:57:36;;;;;;;5.40;4.90;;;;;18.70;96810.00;;;;4912984;29;20202;-74
2023/06/06 06:00:26;;;;;;;4.77;4.33;;;;;18.90;96817.00;;;;4916543;29;20202;-73
2023/06/06 06:03:15;;;;;;;8.53;4.47;;;;;19.20;96809.00;;;;4918270;29;20470;-73
2023/06/06 06:06:05;;;;;;;6.17;4.67;;;;;19.30;96808.00;;;;4920843;29;20209;-73
2023/06/06 06:08:57;;;;;;;9.50;5.33;;;;;19.40;96809.00;;;;4916145;29;20327;-73
2023/06/06 06:11:48;;;;;;;5.07;4.57;;;;;19.30;96805.00;;;;4916418;29;20233;-73
2023/06/06 06:14:37;;;;;;;5.60;5.10;;;;;19.60;96814.00;;;;4915819;29;20219;-73
2023/06/06 06:17:26;;;;;;;7.00;6.17;;;;;19.70;96816.00;;;;4923457;29;20216;-72
2023/06/06 06:20:19;;;;;;;8.63;5.00;;;;;19.80;96811.00;;;;4912630;29;20588;-72
2023/06/06 06:23:08;;;;;;;6.90;5.33;;;;;19.90;96813.00;;;;4920881;29;20236;-73
2023/06/06 06:25:57;;;;;;;7.33;6.53;;;;;20.00;96812.00;;;;4922852;29;20204;-73
2023/06/06 06:28:50;;;;;;;7.37;5.90;;;;;20.00;96810.00;;;;4919294;29;20208;-72
2023/06/06 06:31:39;;;;;;;6.07;5.43;;;;;20.20;96805.00;;;;4920337;29;20723;-71
2023/06/06 06:34:28;;;;;;;9.20;6.33;;;;;20.10;96812.00;;;;4916394;29;20213;-71
2023/06/06 06:37:17;;;;;;;7.70;6.20;;;;;20.10;96804.00;;;;4913508;29;20585;-72
2023/06/06 06:40:09;;;;;;;7.63;6.30;;;;;20.10;96816.00;;;;4912180;29;20214;-71
2023/06/06 06:42:59;;;;;;;7.33;5.97;;;;;20.30;96815.00;;;;4913804;29;20240;-73
2023/06/06 06:45:50;;;;;;;7.17;5.80;;;;;19.80;96816.00;;;;4912530;29;20697;-71
2023/06/06 06:48:39;;;;;;;9.40;6.63;;;;;20.90;96818.00;;;;4914554;29;20220;-72
2023/06/06 06:51:29;;;;;;;9.33;6.87;;;;;20.70;96815.00;;;;4912840;29;20240;-73
2023/06/06 06:54:21;;;;;;;7.93;6.10;;;;;21.20;96821.00;;;;4918587;29;20691;-72
2023/06/06 06:57:10;;;;;;;11.30;6.33;;;;;21.60;96823.00;;;;4917833;29;20212;-72
2023/06/06 07:00:00;;;;;;;8.20;6.50;;;;;21.90;96830.00;;;;4925072;29;20197;-72
2023/06/06 07:02:54;;;;;;;8.87;6.67;;;;;21.60;96825.00;;;;4923470;29;20292;-73
2023/06/06 07:05:43;;;;;;;6.67;5.40;;;;;21.40;96828.00;;;;4922650;29;20239;-73
2023/06/06 07:08:32;;;;;;;7.67;5.93;;;;;21.30;96825.00;;;;4923236;29;20205;-72
2023/06/06 07:11:22;;;;;;;9.07;5.73;;;;;20.90;96830.00;;;;4920491;29;20217;-72
2023/06/06 07:14:11;;;;;;;5.83;5.23;;;;;20.30;96827.00;;;;4926417;29;20698;-71
2023/06/06 07:17:00;;;;;;;7.20;5.13;;;;;20.70;96820.00;;;;4917868;29;20220;-72
2023/06/06 07:19:50;;;;;;;6.87;5.67;;;;;20.50;96835.00;;;;4921575;29;20217;-72
2023/06/06 07:22:39;;;;;;;7.23;6.30;;;;;20.60;96826.00;;;;4917924;29;20846;-72
2023/06/06 07:25:28;;;;;;;5.30;4.77;;;;;20.80;96835.00;;;;4918661;29;20276;-72
2023/06/06 07:28:18;;;;;;;5.97;5.07;;;;;20.90;96820.00;;;;4925502;29;20205;-72
2023/06/06 07:31:07;;;;;;;5.53;4.93;;;;;21.50;96818.00;;;;4918079;29;20240;-73
2023/06/06 07:33:58;;;;;;;9.27;5.80;;;;;21.70;96822.00;;;;4920113;29;20209;-70
2023/06/06 07:36:48;;;;;;;5.20;4.63;;;;;22.30;96823.00;;;;4913093;29;20213;-73
2023/06/06 07:39:37;;;;;;;6.17;5.57;;;;;22.60;96819.00;;;;4915217;29;20701;-73
2023/06/06 07:42:27;;;;;;;7.03;4.03;;;;;22.40;96821.00;;;;4916533;29;20575;-73
2023/06/06 07:45:16;;;;;;;4.10;3.50;;;;;22.30;96816.00;;;;4914921;29;20204;-73
2023/06/06 07:48:05;;;;;;;4.77;4.37;;;;;22.30;96812.00;;;;4920205;29;20224;-73
2023/06/06 07:50:54;;;;;;;4.53;3.77;;;;;22.70;96819.00;;;;4917107;29;20240;-73
2023/06/06 07:53:45;;;;;;;7.70;4.33;;;;;22.70;96812.00;;;;4916947;29;20252;-73
2023/06/06 07:56:36;;;;;;;4.07;3.10;;;;;23.20;96817.00;;;;4920170;29;20220;-74
2023/06/06 07:59:26;;;;;;;4.03;3.63;;;;;22.90;96811.00;;;;4910899;29;20606;-73
2023/06/06 08:02:15;;;;;;;4.43;3.70;;;;;23.40;96808.00;;;;4916062;29;20220;-73
2023/06/06 08:05:05;;;;;;;3.27;2.97;;;;;22.90;96811.00;;;;4913782;29;20222;-73
2023/06/06 08:07:54;;;;;;;3.53;2.93;;;;;22.50;96800.00;;;;4918797;29;20214;-72
2023/06/06 08:10:44;;;;;;;3.27;2.97;;;;;22.00;96806.00;;;;4915292;29;20213;-72
2023/06/06 08:13:33;;;;;;;3.33;3.03;;;;;22.10;96807.00;;;;4919673;29;20726;-72
2023/06/06 08:16:23;;;;;;;4.30;3.83;;;;;22.50;96808.00;;;;4918345;29;20221;-73
2023/06/06 08:19:12;;;;;;;4.57;3.57;;;;;23.10;96808.00;;;;4919755;29;20216;-72
2023/06/06 08:22:01;;;;;;;4.53;3.97;;;;;23.90;96806.00;;;;4921190;29;20625;-72
2023/06/06 08:24:50;;;;;;;5.43;4.00;;;;;24.10;96805.00;;;;4916908;29;20208;-72
2023/06/06 08:27:41;;;;;;;3.60;2.90;;;;;24.60;96803.00;;;;4909638;29;20698;-73
2023/06/06 08:30:30;;;;;;;3.30;3.03;;;;;24.60;96805.00;;;;4911818;29;20211;-72
2023/06/06 08:33:19;;;;;;;4.67;3.03;;;;;24.40;96804.00;;;;4906980;29;20875;-72
2023/06/06 08:36:09;;;;;;;4.20;3.80;;;;;24.80;96792.00;;;;4921202;29;20209;-73
2023/06/06 08:38:58;;;;;;;3.47;3.17;;;;;25.40;96796.00;;;;4914756;29;20210;-73
2023/06/06 08:41:51;;;;;;;3.07;2.80;;;;;25.80;96796.00;;;;4917149;29;20221;-72
2023/06/06 08:44:43;;;;;;;3.60;3.30;;;;;25.50;96796.00;;;;4909824;29;20283;-72
2023/06/06 08:47:33;;;;;;;3.90;2.97;;;;;25.90;96797.00;;;;4917919;29;20241;-73
2023/06/06 08:50:23;;;;;;;2.50;2.30;;;;;25.20;96797.00;;;;4916062;29;20288;-73
2023/06/06 08:53:14;;;;;;;3.17;2.87;;;;;25.60;96797.00;;;;4917096;29;20232;-73
2023/06/06 08:56:03;;;;;;;3.17;2.87;;;;;25.60;96797.00;;;;4913166;29;20232;-73
2023/06/06 08:58:54;;;;;;;3.63;3.10;;;;;25.50;96797.00;;;;4915749;29;20204;-73
2023/06/06 09:01:45;;;;;;;2.67;2.47;;;;;25.50;96796.00;;;;4904939;29;20252;-72
2023/06/06 09:04:35;;;;;;;3.03;2.70;;;;;25.40;96784.00;;;;4920714;29;20261;-73
2023/06/06 09:07:24;;;;;;;2.87;2.67;;;;;25.30;96790.00;;;;4915881;29;20209;-72
2023/06/06 09:10:14;;;;;;;4.05;2.55;;;;;24.80;96774.00;;;;4918211;29;20765;-72
2023/06/06 09:13:03;;;;;;;2.97;2.00;;;;;25.60;96774.00;;;;4910116;29;20640;-73
2023/06/06 09:15:52;;;;;;;2.63;2.43;;;;;26.50;96782.00;;;;4911751;29;20214;-71
2023/06/06 09:18:42;;;;;;;3.40;2.20;;;;;26.60;96782.00;;;;4922417;23;20250;-81
2023/06/06 09:21:32;;;;;;;2.83;2.23;;;;;26.40;96779.00;;;;4949680;28;20203;-81
2023/06/06 09:24:21;;;;;;;2.30;1.93;;;;;26.10;96778.00;;;;4945354;29;20748;-81
2023/06/06 09:27:29;;;;;;;2.50;2.30;;;;;26.80;96772.00;;;;4946316;28;20208;-81
2023/06/06 09:30:22;;;;;;;4.77;2.03;;;;;26.80;96779.00;;;;4942365;28;20259;-80
2023/06/06 09:33:12;;;;;;;2.37;2.17;;;;;26.80;96777.00;;;;4942060;29;20225;-80
2023/06/06 09:36:06;;;;;;;2.77;2.10;;;;;25.80;96778.00;;;;4947621;29;20212;-80
2023/06/06 09:39:03;;;;;;;1.97;1.87;;;;;24.60;96765.00;;;;4946334;28;20243;-80
2023/06/06 09:41:52;;;;;;;2.27;1.90;;;;;26.60;96768.00;;;;4942539;29;20595;-83
2023/06/06 09:44:43;;;;;;;2.53;2.20;;;;;26.70;96764.00;;;;4941829;28;20207;-84
2023/06/06 09:47:32;;;;;;;3.23;1.97;;;;;27.80;96761.00;;;;4940411;29;20241;-83
2023/06/06 09:50:22;;;;;;;2.30;2.10;;;;;27.40;96766.00;;;;4942216;29;20197;-81
2023/06/06 09:53:14;;;;;;;2.93;2.30;;;;;28.00;96764.00;;;;4947589;29;20230;-82
2023/06/06 09:56:05;;;;;;;3.83;1.90;;;;;28.70;96734.00;;;;4941381;28;20713;-82
2023/06/06 09:58:56;;;;;;;2.00;1.80;;;;;29.30;96725.00;;;;4945673;28;20229;-82
2023/06/06 10:01:47;;;;;;;1.90;1.80;;;;;29.50;96725.00;;;;4939706;29;20751;-81
2023/06/06 10:04:36;;;;;;;2.30;2.03;;;;;29.20;96761.00;;;;4944681;29;20206;-82
2023/06/06 10:07:26;;;;;;;2.53;2.33;;;;;28.80;96769.00;;;;4939769;29;20207;-83
2023/06/06 10:10:18;;;;;;;2.00;1.80;;;;;27.00;96764.00;;;;4946979;29;20221;-83
2023/06/06 10:13:07;;;;;;;3.03;1.93;;;;;27.10;96758.00;;;;4939105;29;20223;-82
2023/06/06 10:15:59;;;;;;;3.73;3.43;;;;;27.20;96751.00;;;;4932458;29;20331;-81
2023/06/06 10:18:48;;;;;;;2.00;1.80;;;;;27.80;96755.00;;;;4933338;28;20233;-81
2023/06/06 10:21:38;;;;;;;3.20;1.50;;;;;27.90;96762.00;;;;4941359;29;20239;-82
2023/06/06 10:24:27;;;;;;;3.40;2.65;;;;;25.80;96754.00;;;;4930019;29;20203;-82
2023/06/06 10:27:21;;;;;;;2.60;2.40;;;;;27.00;96755.00;;;;4932597;29;20291;-82
2023/06/06 10:30:17;;;;;;;3.00;2.20;;;;;28.00;96754.00;;;;4937751;29;20686;-80
2023/06/06 10:33:18;;;;;;;2.43;2.23;;;;;28.40;96749.00;;;;4935422;28;20735;-82
2023/06/06 10:36:09;;;;;;;2.10;1.97;;;;;28.80;96748.00;;;;4920204;29;20255;-81
2023/06/06 10:39:19;;;;;;;2.43;2.10;;;;;28.90;96736.00;;;;4940620;28;20263;-84
2023/06/06 10:42:09;;;;;;;4.20;2.00;;;;;29.00;96740.00;;;;4940963;29;20598;-85
2023/06/06 10:45:00;;;;;;;2.40;2.20;;;;;29.60;96740.00;;;;4930086;29;20210;-89
2023/06/06 10:47:49;;;;;;;2.50;2.30;;;;;29.60;96714.00;;;;4938966;29;20249;-80
2023/06/06 10:50:38;;;;;;;2.43;2.23;;;;;30.60;96715.00;;;;4939360;29;20221;-81
2023/06/06 10:53:27;;;;;;;2.27;2.07;;;;;30.60;96704.00;;;;4949472;29;20230;-83
2023/06/06 10:56:32;;;;;;;2.47;2.00;;;;;31.20;96703.00;;;;4944877;28;20208;-83
2023/06/06 10:59:27;;;;;;;2.30;2.10;;;;;31.50;96718.00;;;;4945355;28;20225;-82
2023/06/06 11:02:34;;;;;;;3.23;2.60;;;;;31.10;96730.00;;;;4950419;29;20209;-83
2023/06/06 11:05:23;;;;;;;3.43;2.03;;;;;28.90;96718.00;;;;4947302;29;20214;-84
2023/06/06 11:08:12;;;;;;;2.13;2.03;;;;;28.80;96700.00;;;;4943251;29;20240;-82
2023/06/06 11:11:21;;;;;;;2.40;2.20;;;;;25.30;96708.00;;;;4944989;29;20206;-82
2023/06/06 11:14:11;;;;;;;2.77;2.13;;;;;24.90;96732.00;;;;4945382;29;20760;-81
2023/06/06 11:17:01;;;;;;;2.70;2.50;;;;;23.80;96751.00;;;;4940476;28;20216;-80
2023/06/06 11:19:54;;;;;;;3.07;2.77;;;;;24.10;96745.00;;;;4940863;29;20259;-80
2023/06/06 11:22:53;;;;;;;2.67;2.03;;;;;24.50;96745.00;;;;4945415;29;20201;-81
2023/06/06 11:25:42;;;;;;;2.07;1.87;;;;;23.00;96742.00;;;;4939646;29;20212;-82
2023/06/06 11:28:31;;;;;;;2.33;2.13;;;;;23.80;96755.00;;;;4943304;28;20235;-82
2023/06/06 11:31:21;;;;;;;3.27;2.60;;;;;23.50;96752.00;;;;4941742;29;20218;-80
2023/06/06 11:34:11;;;;;;;3.87;2.50;;;;;22.50;96748.00;;;;4942902;29;20232;-83
2023/06/06 11:37:02;;;;;;;2.80;2.43;;;;;22.80;96750.00;;;;4943126;29;20220;-82
2023/06/06 11:39:51;;;;;;;2.80;2.53;;;;;22.70;96750.00;;;;4943533;28;20221;-83
2023/06/06 11:42:44;;;;;;;3.90;3.10;;;;;23.20;96755.00;;;;4935591;28;20255;-81
2023/06/06 11:45:33;;;;;;;2.83;2.13;;;;;22.90;96761.00;;;;4947903;29;20203;-81
2023/06/06 11:48:23;;;;;;;2.23;2.10;;;;;23.30;96749.00;;;;4945896;28;20279;-81
2023/06/06 11:51:13;;;;;;;2.47;2.27;;;;;23.00;96763.00;;;;4947780;29;20208;-80
2023/06/06 11:54:17;;;;;;;3.37;2.30;;;;;21.70;96753.00;;;;4953383;29;20278;-81
2023/06/06 11:57:08;;;;;;;2.60;2.27;;;;;21.50;96760.00;;;;4946064;29;20099;-82
2023/06/06 11:59:59;;;;;;;2.40;2.20;;;;;21.50;96766.00;;;;4939768;29;20766;-82
2023/06/06 12:02:49;;;;;;;2.43;2.23;;;;;21.50;96758.00;;;;4942960;29;20211;-83
2023/06/06 12:05:38;;;;;;;3.37;3.07;;;;;21.80;96753.00;;;;4945269;29;20208;-82
2023/06/06 12:08:27;;;;;;;2.17;1.97;;;;;21.50;96746.00;;;;4945641;28;20232;-82
2023/06/06 12:11:26;;;;;;;2.30;2.10;;;;;22.20;96746.00;;;;4945062;29;20231;-83
2023/06/06 12:14:15;;;;;;;2.27;2.17;;;;;22.10;96741.00;;;;4943267;29;20582;-83
2023/06/06 12:17:06;;;;;;;2.53;2.37;;;;;22.70;96746.00;;;;4938297;29;20219;-82
2023/06/06 12:19:55;;;;;;;2.73;2.30;;;;;23.10;96747.00;;;;4949365;28;20243;-80
2023/06/06 12:22:50;;;;;;;4.17;2.70;;;;;23.20;96746.00;;;;4941134;28;20260;-82
2023/06/06 12:25:39;;;;;;;2.77;2.50;;;;;23.40;96751.00;;;;4958629;28;20409;-81
2023/06/06 12:28:30;;;;;;;2.30;2.10;;;;;23.50;96749.00;;;;4959406;28;20231;-83
2023/06/06 12:31:19;;;;;;;2.90;2.00;;;;;23.90;96742.00;;;;4958478;28;20204;-83
2023/06/06 12:34:13;;;;;;;1.80;1.70;;;;;24.30;96750.00;;;;4958256;28;20228;-82
2023/06/06 12:37:02;;;;;;;2.50;2.23;;;;;24.80;96746.00;;;;4963423;28;20203;-82
2023/06/06 12:39:51;;;;;;;2.67;2.47;;;;;25.40;96748.00;;;;4970208;28;20224;-82
2023/06/06 12:42:40;;;;;;;4.73;2.40;;;;;25.60;96744.00;;;;4958579;28;20207;-81
2023/06/06 12:45:30;;;;;;;3.30;2.47;;;;;25.70;96741.00;;;;4954839;28;20215;-82
2023/06/06 12:48:22;;;;;;;2.00;1.90;;;;;25.60;96742.00;;;;4953325;28;20230;-83
2023/06/06 12:51:12;;;;;;;2.93;2.13;;;;;25.70;96744.00;;;;4951944;28;20204;-83
2023/06/06 12:54:01;;;;;;;2.00;1.90;;;;;25.60;96746.00;;;;4956868;28;20239;-83
2023/06/06 12:56:50;;;;;;;2.40;2.20;;;;;25.40;96736.00;;;;4960977;28;20218;-82
2023/06/06 12:59:41;;;;;;;2.33;2.13;;;;;25.50;96741.00;;;;4954107;28;20227;-81
2023/06/06 13:02:32;;;;;;;1.80;1.70;;;;;26.00;96743.00;;;;4954257;28;20815;-83
2023/06/06 13:05:22;;;;;;;1.40;1.30;;;;;26.20;96741.00;;;;4954040;28;20580;-82
2023/06/06 13:08:11;;;;;;;1.83;1.73;;;;;26.30;96731.00;;;;4953848;28;20228;-82
2023/06/06 13:11:07;;;;;;;1.40;1.30;;;;;26.20;96731.00;;;;4942471;28;20209;-83
2023/06/06 13:13:56;;;;;;;1.83;1.73;;;;;26.70;96729.00;;;;4953300;28;20655;-83
2023/06/06 13:16:45;;;;;;;1.67;1.57;;;;;27.30;96739.00;;;;4954757;28;20213;-81
2023/06/06 13:19:43;;;;;;;1.60;1.30;;;;;27.40;96739.00;;;;4954964;28;20241;-82
2023/06/06 13:22:32;;;;;;;1.87;1.20;;;;;27.80;96725.00;;;;4958263;28;20242;-83
2023/06/06 13:25:21;;;;;;;1.30;1.20;;;;;28.60;96701.00;;;;4953592;28;20467;-83
2023/06/06 13:28:10;;;;;;;1.57;1.33;;;;;29.60;96674.00;;;;4955623;28;20247;-84
2023/06/06 13:31:00;;;;;;;1.83;1.67;;;;;29.60;96687.00;;;;4955149;28;20221;-82
2023/06/06 13:33:51;;;;;;;1.50;1.40;;;;;29.60;96727.00;;;;4954059;28;20230;-83
2023/06/06 13:36:43;;;;;;;1.60;1.50;;;;;28.60;96721.00;;;;4934139;28;20200;-81
2023/06/06 13:39:32;;;;;;;1.73;1.63;;;;;28.60;96731.00;;;;4954651;28;20223;-81
2023/06/06 13:42:21;;;;;;;1.93;1.73;;;;;27.80;96731.00;;;;4954537;28;20206;-83
2023/06/06 13:45:11;;;;;;;4.53;1.83;;;;;27.20;96735.00;;;;4954362;28;20213;-82
2023/06/06 13:48:00;;;;;;;1.67;1.57;;;;;26.40;96727.00;;;;4957771;28;20218;-79
2023/06/06 13:50:49;;;;;;;4.57;1.90;;;;;26.20;96723.00;;;;4953699;28;20205;-82
2023/06/06 13:53:40;;;;;;;1.63;1.53;;;;;26.70;96712.00;;;;4956066;28;20217;-81
2023/06/06 13:56:29;;;;;;;1.20;1.10;;;;;26.60;96700.00;;;;4956287;28;20198;-82
2023/06/06 13:59:20;;;;;;;1.40;1.10;;;;;27.10;96710.00;;;;4957775;28;20609;-82
2023/06/06 14:02:09;;;;;;;2.17;1.50;;;;;26.90;96701.00;;;;4955303;28;20594;-80
2023/06/06 14:04:58;;;;;;;3.10;1.33;;;;;27.10;96710.00;;;;4959175;28;20218;-82
2023/06/06 14:07:48;;;;;;;1.57;1.47;;;;;26.50;96718.00;;;;4965300;28;20200;-81
2023/06/06 14:10:38;;;;;;;1.00;0.90;;;;;27.00;96714.00;;;;4958646;28;20213;-81
2023/06/06 14:13:28;;;;;;;1.63;1.30;;;;;26.50;96714.00;;;;4955829;28;20220;-83
2023/06/06 14:16:17;;;;;;;1.07;0.93;;;;;27.20;96719.00;;;;4953124;28;20207;-83